Dades meteomassalio
Diari Summary for Febrer 18, 2017 Units:  English    Metric   Both
« Previous Day
Next Day »
Diari Semanal Mensual Anual Personalitzat
  Maxima: Minima: Mijana:
Temperatura: TemperatureC °F 0.3 °F 6.4 °F
Rosada: DewpointC °F -0.6 °F 4.3 °F
Humitat: Humidity % 72 % 87 %
Velocitat del vent: WindSpeedKMH mph 0.0 mph 2.6 mph
Racha vent: WindSpeedGustKMH mph - -
Vent:- - NE
Pressio: PressurehPa in 1020.5 in -
Pluja: 0.5 in    
Historical Graphs
 
 
Tabular Data for Febrer 18, 2017
Time Temperature Dew Point Pressure Wind Wind Speed Wind Gust Humidity Rainfall Rate (Hourly) solar Conditions
TemperatureC °F DewpointC °F PressurehPa in Calm     Humidity % HourlyPrecipMM in SolarRadiationWatts/m^2 W/m2 Conditions
00:02 3.4 °F 2.3 °F 1027.0 in Calm     92 % 0.0 in 0.0 W/m2 RA
00:07 3.4 °F 2.2 °F 1027.0 in Calm     92 % 0.0 in 0.0 W/m2 CLR
00:12 3.3 °F 2.2 °F 1027.0 in Calm     92 % 0.0 in 0.0 W/m2 CLR
00:17 3.3 °F 2.2 °F 1026.6 in Calm     92 % 0.0 in 0.0 W/m2 CLR
00:22 3.2 °F 2.1 °F 1026.6 in Calm     92 % 0.0 in 0.0 W/m2 CLR
00:27 3.1 °F 1.9 °F 1026.6 in Calm     92 % 0.0 in 0.0 W/m2 CLR
00:32 3.1 °F 1.9 °F 1026.6 in Calm     92 % 0.0 in 0.0 W/m2 CLR
00:37 3.0 °F 1.8 °F 1027.0 in Calm     92 % 0.0 in 0.0 W/m2 CLR
00:42 2.9 °F 1.8 °F 1026.6 in Calm     92 % 0.0 in 0.0 W/m2 CLR
00:47 2.9 °F 1.9 °F 1026.6 in Calm     93 % 0.0 in 0.0 W/m2 CLR
00:52 2.9 °F 1.9 °F 1026.6 in Calm     93 % 0.0 in 0.0 W/m2 CLR
00:57 3.0 °F 2.0 °F 1026.6 in Calm     93 % 0.0 in 0.0 W/m2 CLR
01:02 2.9 °F 1.9 °F 1026.6 in Calm     93 % 0.0 in 0.0 W/m2 CLR
01:07 2.9 °F 1.9 °F 1026.6 in Calm     93 % 0.0 in 0.0 W/m2 CLR
01:12 2.9 °F 1.9 °F 1026.6 in Calm     93 % 0.0 in 0.0 W/m2 CLR
01:17 2.9 °F 1.9 °F 1026.6 in Calm     93 % 0.0 in 0.0 W/m2 CLR
01:22 2.8 °F 1.8 °F 1026.3 in Calm     93 % 0.0 in 0.0 W/m2 CLR
01:27 2.8 °F 1.8 °F 1026.3 in Calm     93 % 0.0 in 0.0 W/m2 CLR
01:32 2.6 °F 1.6 °F 1026.3 in Calm     93 % 0.0 in 0.0 W/m2 CLR
01:37 2.5 °F 1.5 °F 1026.3 in Calm     93 % 0.0 in 0.0 W/m2 CLR
01:42 2.5 °F 1.5 °F 1026.3 in Calm     93 % 0.0 in 0.0 W/m2 CLR
01:47 2.4 °F 1.4 °F 1026.3 in Calm     93 % 0.0 in 0.0 W/m2 CLR
01:52 2.3 °F 1.3 °F 1026.3 in Calm     93 % 0.0 in 0.0 W/m2 CLR
01:57 2.4 °F 1.4 °F 1026.3 in Calm     93 % 0.0 in 0.0 W/m2 CLR
02:02 2.4 °F 1.4 °F 1026.3 in Calm     93 % 0.0 in 0.0 W/m2 CLR
02:07 2.3 °F 1.3 °F 1026.3 in Calm     93 % 0.0 in 0.0 W/m2 CLR
02:12 2.4 °F 1.4 °F 1026.3 in Calm     93 % 0.0 in 0.0 W/m2 CLR
02:17 2.6 °F 1.6 °F 1026.3 in Calm     93 % 0.0 in 0.0 W/m2 CLR
02:22 2.7 °F 1.7 °F 1026.3 in Calm     93 % 0.0 in 0.0 W/m2 CLR
02:27 2.4 °F 1.4 °F 1026.0 in Calm     93 % 0.0 in 0.0 W/m2 CLR
02:32 2.4 °F 1.4 °F 1026.0 in Calm     93 % 0.3 in 0.0 W/m2 RA
02:37 2.4 °F 1.4 °F 1026.0 in Calm     93 % 0.3 in 0.0 W/m2 CLR
02:42 2.3 °F 1.3 °F 1026.0 in Calm     93 % 0.3 in 0.0 W/m2 CLR
02:47 2.2 °F 1.2 °F 1026.0 in Calm     93 % 0.3 in 0.0 W/m2 CLR
02:52 2.1 °F 1.1 °F 1026.0 in Calm     93 % 0.3 in 0.0 W/m2 CLR
02:57 1.9 °F 0.9 °F 1026.0 in Calm     93 % 0.3 in 0.0 W/m2 CLR
03:02 1.9 °F 0.9 °F 1026.0 in Calm     93 % 0.3 in 0.0 W/m2 CLR
03:07 1.9 °F 0.9 °F 1026.0 in Calm     93 % 0.3 in 0.0 W/m2 CLR
03:12 1.9 °F 0.9 °F 1026.0 in Calm     93 % 0.3 in 0.0 W/m2 CLR
03:17 1.7 °F 0.7 °F 1025.6 in Calm     93 % 0.3 in 0.0 W/m2 CLR
03:22 1.6 °F 0.6 °F 1025.6 in Calm     93 % 0.3 in 0.0 W/m2 CLR
03:27 1.5 °F 0.5 °F 1025.6 in Calm     93 % 0.3 in 0.0 W/m2 CLR
03:32 1.5 °F 0.5 °F 1025.6 in Calm     93 % 0.0 in 0.0 W/m2 CLR
03:37 1.6 °F 0.6 °F 1025.6 in Calm     93 % 0.0 in 0.0 W/m2 CLR
03:42 1.6 °F 0.6 °F 1025.6 in Calm     93 % 0.0 in 0.0 W/m2 CLR
03:47 1.6 °F 0.6 °F 1025.6 in Calm     93 % 0.0 in 0.0 W/m2 CLR
03:52 1.5 °F 0.5 °F 1025.6 in Calm     93 % 0.0 in 0.0 W/m2 CLR
03:57 1.5 °F 0.5 °F 1025.6 in Calm     93 % 0.0 in 0.0 W/m2 CLR
04:02 1.5 °F 0.5 °F 1025.6 in Calm     93 % 0.0 in 0.0 W/m2 CLR
04:07 1.4 °F 0.4 °F 1025.6 in Calm     93 % 0.0 in 0.0 W/m2 CLR
04:12 1.4 °F 0.4 °F 1025.6 in Calm     93 % 0.0 in 0.0 W/m2 CLR
04:17 1.5 °F 0.5 °F 1025.3 in Calm     93 % 0.0 in 0.0 W/m2 CLR
04:22 1.7 °F 0.8 °F 1025.3 in Calm     94 % 0.0 in 0.0 W/m2 CLR
04:27 1.7 °F 0.8 °F 1025.3 in Calm     94 % 0.0 in 0.0 W/m2 CLR
04:32 1.6 °F 0.6 °F 1025.3 in Calm     93 % 0.0 in 0.0 W/m2 CLR
04:37 1.4 °F 0.4 °F 1025.3 in Calm     93 % 0.0 in 0.0 W/m2 CLR
04:42 1.3 °F 0.3 °F 1025.3 in Calm     93 % 0.0 in 0.0 W/m2 CLR
04:47 1.2 °F 0.2 °F 1025.3 in Calm     93 % 0.0 in 0.0 W/m2 CLR
04:52 1.1 °F 0.1 °F 1025.3 in Calm     93 % 0.0 in 0.0 W/m2 CLR
04:57 1.1 °F 0.1 °F 1025.3 in Calm     93 % 0.0 in 0.0 W/m2 CLR
05:02 1.1 °F 0.2 °F 1025.3 in Calm     94 % 0.0 in 0.0 W/m2 CLR
05:07 1.1 °F 0.2 °F 1025.3 in Calm     94 % 0.0 in 0.0 W/m2 CLR
05:12 1.0 °F 0.2 °F 1025.3 in Calm     94 % 0.0 in 0.0 W/m2 CLR
05:17 0.9 °F -0.1 °F 1025.3 in Calm     93 % 0.0 in 0.0 W/m2 CLR
05:22 0.9 °F -0.1 °F 1025.3 in Calm     93 % 0.0 in 0.0 W/m2 CLR
05:27 0.8 °F -0.2 °F 1025.3 in Calm     93 % 0.0 in 0.0 W/m2 CLR
05:32 0.8 °F -0.2 °F 1025.3 in Calm     93 % 0.0 in 0.0 W/m2 CLR
05:37 0.8 °F -0.2 °F 1025.3 in Calm     93 % 0.0 in 0.0 W/m2 CLR
05:42 0.8 °F -0.2 °F 1025.3 in Calm     93 % 0.0 in 0.0 W/m2 CLR
05:47 0.8 °F -0.2 °F 1025.3 in Calm     93 % 0.0 in 0.0 W/m2 CLR
05:52 0.9 °F 0.1 °F 1025.3 in Calm     94 % 0.0 in 0.0 W/m2 CLR
05:57 1.1 °F 0.2 °F 1025.3 in Calm     94 % 0.0 in 0.0 W/m2 CLR
06:02 1.3 °F 0.4 °F 1025.3 in Calm     94 % 0.0 in 0.0 W/m2 CLR
06:07 1.3 °F 0.5 °F 1025.3 in Calm     94 % 0.0 in 0.0 W/m2 CLR
06:12 1.2 °F 0.2 °F 1025.3 in Calm     93 % 0.0 in 0.0 W/m2 CLR
06:17 1.1 °F 0.1 °F 1025.3 in Calm     93 % 0.0 in 0.0 W/m2 CLR
06:22 0.9 °F -0.1 °F 1025.3 in Calm     93 % 0.0 in 0.0 W/m2 CLR
06:27 0.7 °F -0.3 °F 1025.3 in Calm     93 % 0.0 in 0.0 W/m2 CLR
06:32 0.6 °F -0.4 °F 1025.3 in Calm     93 % 0.0 in 0.0 W/m2 CLR
06:33 0.6 °F -0.4 °F 1025.3 in Calm     93 % 0.0 in 0.0 W/m2 CLR
06:38 0.6 °F -0.3 °F 1024.9 in Calm     94 % 0.0 in 0.0 W/m2 CLR
06:43 0.6 °F -0.4 °F 1025.3 in Calm     93 % 0.0 in 0.0 W/m2 CLR
06:48 0.6 °F -0.4 °F 1024.9 in Calm     93 % 0.0 in 0.0 W/m2 CLR
06:53 0.4 °F -0.6 °F 1025.3 in Calm     93 % 0.0 in 0.0 W/m2 CLR
06:58 0.4 °F -0.6 °F 1024.9 in Calm     93 % 0.0 in 0.0 W/m2 CLR
07:03 0.4 °F -0.4 °F 1024.9 in Calm     94 % 0.0 in 0.0 W/m2 CLR
07:08 0.4 °F -0.4 °F 1024.9 in Calm     94 % 0.0 in 0.0 W/m2 CLR
07:13 0.4 °F -0.4 °F 1024.9 in Calm     94 % 0.0 in 0.0 W/m2 CLR
07:18 0.4 °F -0.4 °F 1024.9 in Calm     94 % 0.0 in 0.0 W/m2 CLR
07:23 0.5 °F -0.3 °F 1024.9 in Calm     94 % 0.0 in 0.0 W/m2 CLR
07:28 0.5 °F -0.3 °F 1025.3 in Calm     94 % 0.0 in 0.0 W/m2 CLR
07:33 0.4 °F -0.4 °F 1025.3 in Calm     94 % 0.0 in 0.0 W/m2 CLR
07:38 0.3 °F -0.5 °F 1025.3 in Calm     94 % 0.0 in 0.0 W/m2 CLR
07:43 0.3 °F -0.5 °F 1025.3 in Calm     94 % 0.0 in 0.0 W/m2 OVC
07:48 0.4 °F -0.4 °F 1025.3 in Calm     94 % 0.0 in 0.0 W/m2 OVC
07:53 0.5 °F -0.3 °F 1025.3 in Calm     94 % 0.0 in 5.0 W/m2 OVC
07:58 0.6 °F -0.3 °F 1025.3 in Calm     94 % 0.0 in 9.0 W/m2 BKN
08:03 0.6 °F -0.2 °F 1025.3 in Calm     94 % 0.0 in 12.0 W/m2 BKN
08:08 0.5 °F -0.3 °F 1025.3 in Calm     94 % 0.0 in 16.0 W/m2 BKN
08:13 0.5 °F -0.3 °F 1025.3 in Calm     94 % 0.0 in 23.0 W/m2 BKN
08:18 0.7 °F -0.2 °F 1025.3 in Calm     94 % 0.0 in 30.0 W/m2 BKN
08:23 0.8 °F 0.0 °F 1025.3 in Calm     94 % 0.0 in 37.0 W/m2 BKN
08:28 0.9 °F 0.1 °F 1025.3 in Calm     94 % 0.0 in 44.0 W/m2 BKN
08:33 0.9 °F 0.1 °F 1025.3 in Calm     94 % 0.0 in 54.0 W/m2 SCT
08:38 1.1 °F 0.2 °F 1025.3 in Calm     94 % 0.0 in 67.0 W/m2 SCT
08:43 1.3 °F 0.4 °F 1025.3 in Calm     94 % 0.0 in 77.0 W/m2 FEW
08:48 1.6 °F 0.7 °F 1025.3 in Calm     94 % 0.0 in 81.0 W/m2 FEW
08:53 1.9 °F 1.0 °F 1025.3 in Calm     94 % 0.0 in 114.0 W/m2 CLR
08:58 2.1 °F 1.2 °F 1025.3 in Calm     94 % 0.0 in 130.0 W/m2 CLR
09:03 2.3 °F 1.4 °F 1025.3 in Calm     94 % 0.0 in 144.0 W/m2 CLR
09:08 2.4 °F 1.6 °F 1025.3 in Calm     94 % 0.3 in 158.0 W/m2 RA
09:13 2.8 °F 1.9 °F 1024.9 in Calm     94 % 0.3 in 128.0 W/m2 CLR
09:18 3.2 °F 2.3 °F 1024.9 in Calm     94 % 0.3 in 195.0 W/m2 CLR
09:23 3.5 °F 2.6 °F 1024.9 in Calm     94 % 0.3 in 209.0 W/m2 CLR
09:28 3.9 °F 3.1 °F 1024.9 in Calm     94 % 0.3 in 229.0 W/m2 CLR
09:33 4.2 °F 3.3 °F 1024.9 in Calm     94 % 0.3 in 243.0 W/m2 CLR
09:38 4.5 °F 3.4 °F 1024.9 in Calm     93 % 0.3 in 255.0 W/m2 CLR
09:43 4.8 °F 3.8 °F 1024.9 in Calm     93 % 0.3 in 269.0 W/m2 CLR
09:48 5.2 °F 4.2 °F 1024.9 in Calm     93 % 0.3 in 281.0 W/m2 CLR
09:53 5.8 °F 4.7 °F 1024.9 in Calm     93 % 0.3 in 297.0 W/m2 CLR
09:59 6.2 °F 5.2 °F 1024.9 in Calm     93 % 0.3 in 309.0 W/m2 CLR
10:04 6.4 °F 5.1 °F 1024.9 in Calm     91 % 0.3 in 323.0 W/m2 CLR
10:09 6.7 °F 5.3 °F 1024.9 in Calm     91 % 0.0 in 336.0 W/m2 CLR
10:14 7.0 °F 5.4 °F 1024.6 in Calm     90 % 0.0 in 348.0 W/m2 CLR
10:19 7.4 °F 5.8 °F 1024.6 in Calm     90 % 0.0 in 359.0 W/m2 CLR
10:24 7.9 °F 6.2 °F 1024.6 in Calm     89 % 0.0 in 371.0 W/m2 CLR
10:29 8.2 °F 6.2 °F 1024.6 in Calm     87 % 0.0 in 383.0 W/m2 CLR
10:34 8.6 °F 6.3 °F 1024.6 in ENE 1.9 mph   86 % 0.0 in 396.0 W/m2 CLR
10:39 8.9 °F 6.5 °F 1024.6 in Calm     85 % 0.0 in 406.0 W/m2 CLR
10:44 9.2 °F 6.7 °F 1024.6 in Calm     84 % 0.0 in 413.0 W/m2 CLR
10:49 9.6 °F 6.9 °F 1024.3 in Calm     83 % 0.0 in 427.0 W/m2 CLR
10:54 10.1 °F 6.9 °F 1024.3 in Calm     81 % 0.0 in 439.0 W/m2 CLR
10:59 10.3 °F 7.1 °F 1024.3 in Calm     80 % 0.0 in 450.0 W/m2 CLR
11:04 10.7 °F 7.2 °F 1024.3 in Calm     79 % 0.0 in 462.0 W/m2 CLR
11:09 10.9 °F 7.0 °F 1023.9 in NE 5.6 mph   77 % 0.0 in 473.0 W/m2 CLR
11:14 10.9 °F 7.0 °F 1023.9 in Calm     77 % 0.0 in 480.0 W/m2 CLR
11:19 11.1 °F 7.0 °F 1023.9 in Calm   0.2 mph 76 % 0.0 in 492.0 W/m2 CLR
11:24 11.3 °F 7.2 °F 1023.9 in Calm     76 % 0.0 in 497.0 W/m2 CLR
11:29 11.5 °F 7.2 °F 1023.9 in NE 5.6 mph 5.6 mph 75 % 0.0 in 508.0 W/m2 CLR
11:34 11.6 °F 7.3 °F 1023.9 in ENE 9.3 mph 9.3 mph 75 % 0.0 in 517.0 W/m2 CLR
11:39 11.6 °F 7.5 °F 1023.9 in ENE 9.3 mph 9.3 mph 76 % 0.0 in 524.0 W/m2 CLR
11:44 11.7 °F 7.4 °F 1023.9 in NE 9.3 mph 9.3 mph 75 % 0.0 in 531.0 W/m2 CLR
11:49 11.6 °F 7.4 °F 1023.6 in NE 11.1 mph 11.1 mph 76 % 0.0 in 540.0 W/m2 CLR
11:54 11.4 °F 7.3 °F 1023.6 in ENE 11.1 mph 11.1 mph 76 % 0.0 in 545.0 W/m2 CLR
11:59 11.4 °F 7.5 °F 1023.6 in ENE 13.0 mph 13.0 mph 77 % 0.0 in 550.0 W/m2 CLR
12:04 11.3 °F 7.4 °F 1023.6 in ENE 11.1 mph 11.1 mph 77 % 0.0 in 561.0 W/m2 CLR
12:09 11.4 °F 7.7 °F 1023.6 in ENE 11.1 mph 11.1 mph 78 % 0.0 in 566.0 W/m2 CLR
12:14 11.3 °F 7.6 °F 1023.6 in ENE 13.0 mph 13.0 mph 78 % 0.0 in 571.0 W/m2 CLR
12:19 11.2 °F 7.7 °F 1023.2 in ENE 11.1 mph 11.1 mph 79 % 0.0 in 575.0 W/m2 CLR
12:24 11.4 °F 7.9 °F 1023.2 in NE 11.3 mph 11.3 mph 79 % 0.0 in 580.0 W/m2 CLR
12:29 11.4 °F 7.9 °F 1023.2 in NE 13.0 mph 13.0 mph 79 % 0.0 in 582.0 W/m2 CLR
12:34 11.4 °F 7.9 °F 1023.2 in NE 11.1 mph 11.1 mph 79 % 0.0 in 585.0 W/m2 CLR
12:39 11.3 °F 7.8 °F 1022.9 in ENE 11.1 mph 11.1 mph 79 % 0.0 in 591.0 W/m2 CLR
12:44 11.4 °F 8.1 °F 1022.9 in ENE 7.4 mph 8.8 mph 80 % 0.0 in 594.0 W/m2 CLR
12:49 11.5 °F 8.0 °F 1022.9 in NE 11.1 mph 11.1 mph 79 % 0.0 in 596.0 W/m2 CLR
12:54 11.5 °F 7.8 °F 1022.6 in ENE 13.0 mph 13.0 mph 78 % 0.0 in 598.0 W/m2 CLR
12:59 11.6 °F 8.2 °F 1022.6 in NE 13.0 mph 13.0 mph 80 % 0.0 in 599.0 W/m2 CLR
13:04 11.6 °F 8.1 °F 1022.6 in ENE 9.7 mph 9.7 mph 79 % 0.0 in 601.0 W/m2 CLR
13:09 11.7 °F 7.9 °F 1022.6 in NE 11.1 mph 11.1 mph 78 % 0.0 in 601.0 W/m2 CLR
13:14 11.8 °F 8.3 °F 1022.6 in NNE 11.1 mph 11.1 mph 79 % 0.0 in 599.0 W/m2 CLR
13:19 11.8 °F 8.1 °F 1022.6 in ENE 9.3 mph 9.3 mph 78 % 0.0 in 599.0 W/m2 CLR
13:24 11.9 °F 8.2 °F 1022.2 in ENE 14.8 mph 14.8 mph 78 % 0.0 in 601.0 W/m2 CLR
13:29 12.0 °F 8.3 °F 1022.2 in ENE 13.0 mph 13.0 mph 78 % 0.0 in 599.0 W/m2 CLR
13:34 12.1 °F 8.2 °F 1022.2 in NE 14.5 mph 14.5 mph 77 % 0.0 in 596.0 W/m2 CLR
13:39 12.1 °F 8.2 °F 1021.9 in NE 14.5 mph 14.5 mph 77 % 0.0 in 598.0 W/m2 CLR
13:44 12.1 °F 8.2 °F 1021.9 in ENE 14.8 mph 14.8 mph 77 % 0.0 in 592.0 W/m2 CLR
13:49 12.2 °F 8.4 °F 1021.9 in NNE 9.3 mph 9.3 mph 78 % 0.0 in 589.0 W/m2 CLR
13:54 12.4 °F 8.4 °F 1021.9 in ENE 9.7 mph 9.7 mph 77 % 0.0 in 589.0 W/m2 CLR
13:59 12.6 °F 8.6 °F 1021.9 in NE 9.3 mph 9.3 mph 77 % 0.0 in 584.0 W/m2 CLR
14:04 12.7 °F 8.6 °F 1021.9 in NE 7.4 mph 7.4 mph 76 % 0.0 in 578.0 W/m2 CLR
14:09 12.8 °F 8.4 °F 1021.6 in ENE 11.1 mph 11.1 mph 75 % 0.0 in 575.0 W/m2 CLR
14:14 12.8 °F 8.4 °F 1021.6 in ENE 11.1 mph 11.1 mph 75 % 0.0 in 568.0 W/m2 CLR
14:19 12.8 °F 8.7 °F 1021.6 in NE 14.8 mph 14.8 mph 76 % 0.0 in 568.0 W/m2 CLR
14:24 12.6 °F 8.3 °F 1021.6 in ENE 12.9 mph 12.9 mph 75 % 0.0 in 559.0 W/m2 CLR
14:29 12.6 °F 8.5 °F 1021.6 in NE 16.7 mph 16.7 mph 76 % 0.0 in 554.0 W/m2 CLR
14:34 12.7 °F 8.6 °F 1021.6 in NE 9.3 mph 9.3 mph 76 % 0.0 in 548.0 W/m2 CLR
14:39 12.7 °F 8.4 °F 1021.2 in NE 8.0 mph 8.0 mph 75 % 0.0 in 541.0 W/m2 CLR
14:44 12.8 °F 8.3 °F 1021.2 in NE 13.0 mph 13.0 mph 74 % 0.0 in 534.0 W/m2 CLR
14:49 12.7 °F 8.2 °F 1021.2 in NE 11.1 mph 11.1 mph 74 % 0.0 in 529.0 W/m2 CLR
14:54 12.7 °F 8.2 °F 1021.2 in NNE 7.4 mph 7.4 mph 74 % 0.0 in 520.0 W/m2 CLR
14:59 12.9 °F 8.4 °F 1021.2 in NE 5.6 mph 5.6 mph 74 % 0.0 in 510.0 W/m2 CLR
15:04 13.2 °F 8.8 °F 1021.2 in ENE 14.8 mph 14.8 mph 75 % 0.0 in 499.0 W/m2 CLR
15:09 13.2 °F 8.9 °F 1021.2 in NNE 9.3 mph 9.3 mph 75 % 0.0 in 492.0 W/m2 CLR
15:14 13.2 °F 8.9 °F 1020.9 in NE 13.0 mph 13.0 mph 75 % 0.0 in 483.0 W/m2 CLR
15:19 13.2 °F 8.8 °F 1020.9 in NE 13.0 mph 13.0 mph 75 % 0.0 in 471.0 W/m2 CLR
15:24 13.1 °F 8.8 °F 1020.9 in NE 13.0 mph 13.0 mph 75 % 0.0 in 461.0 W/m2 CLR
15:29 13.1 °F 9.0 °F 1020.9 in NNE 7.4 mph 7.4 mph 76 % 0.0 in 452.0 W/m2 CLR
15:39 13.3 °F 8.6 °F 1020.9 in ENE 11.1 mph 11.1 mph 73 % 0.0 in 425.0 W/m2 CLR
15:44 13.3 °F 8.6 °F 1020.9 in ENE 8.0 mph 8.0 mph 73 % 0.0 in 417.0 W/m2 CLR
15:49 13.4 °F 8.7 °F 1020.9 in ENE 8.0 mph 8.0 mph 73 % 0.0 in 410.0 W/m2 CLR
15:54 13.5 °F 8.8 °F 1020.9 in ENE 13.0 mph 13.0 mph 73 % 0.0 in 397.0 W/m2 CLR
15:59 13.5 °F 8.8 °F 1020.5 in ENE 9.3 mph 9.3 mph 73 % 0.0 in 385.0 W/m2 CLR
16:04 13.4 °F 8.7 °F 1020.5 in NE 13.0 mph 13.0 mph 73 % 0.0 in 367.0 W/m2 CLR
16:09 13.3 °F 8.8 °F 1020.5 in NE 9.3 mph 9.3 mph 74 % 0.0 in 357.0 W/m2 CLR
16:14 13.4 °F 8.7 °F 1020.5 in Calm     73 % 0.0 in 346.0 W/m2 CLR
16:19 13.4 °F 8.7 °F 1020.5 in NNE 11.1 mph 11.1 mph 73 % 0.0 in 330.0 W/m2 CLR
16:24 13.5 °F 8.8 °F 1020.5 in Calm     73 % 0.0 in 316.0 W/m2 CLR
16:29 13.6 °F 8.6 °F 1020.5 in NE 9.7 mph 9.7 mph 72 % 0.0 in 306.0 W/m2 CLR
16:34 13.6 °F 8.8 °F 1020.5 in NE 9.7 mph 9.7 mph 73 % 0.0 in 290.0 W/m2 CLR
16:39 13.4 °F 8.5 °F 1020.5 in Calm     72 % 0.0 in 281.0 W/m2 CLR
16:44 13.5 °F 8.8 °F 1020.5 in NE 7.4 mph 7.4 mph 73 % 0.0 in 265.0 W/m2 CLR
16:49 13.3 °F 8.6 °F 1020.5 in Calm     73 % 0.0 in 250.0 W/m2 CLR
16:54 13.3 °F 8.8 °F 1020.5 in NNE 11.1 mph 11.1 mph 74 % 0.0 in 237.0 W/m2 CLR
16:59 13.3 °F 8.7 °F 1020.5 in NE 9.3 mph 9.3 mph 74 % 0.0 in 223.0 W/m2 CLR
17:04 13.2 °F 8.8 °F 1020.5 in Calm     75 % 0.0 in 204.0 W/m2 CLR
17:09 13.1 °F 8.9 °F 1020.5 in NE 7.4 mph 7.4 mph 76 % 0.0 in 181.0 W/m2 CLR
17:14 12.9 °F 8.9 °F 1020.5 in NNE 9.3 mph 9.3 mph 77 % 0.0 in 163.0 W/m2 CLR
17:19 12.7 °F 9.0 °F 1020.5 in NE 4.8 mph   78 % 0.0 in 149.0 W/m2 CLR
17:24 12.6 °F 9.1 °F 1020.5 in ENE 9.3 mph 9.3 mph 79 % 0.0 in 135.0 W/m2 CLR
17:29 12.5 °F 8.9 °F 1020.5 in Calm     79 % 0.0 in 116.0 W/m2 CLR
17:34 12.4 °F 9.1 °F 1020.5 in NE 9.3 mph 9.3 mph 80 % 0.0 in 100.0 W/m2 CLR
17:39 12.2 °F 9.1 °F 1020.5 in NNE 9.3 mph 9.3 mph 81 % 0.0 in 90.0 W/m2 CLR
17:44 12.1 °F 8.9 °F 1020.5 in NE 7.4 mph   81 % 0.0 in 81.0 W/m2 FEW
17:49 11.9 °F 8.9 °F 1020.5 in Calm     82 % 0.0 in 56.0 W/m2 SCT
17:54 11.8 °F 8.8 °F 1020.5 in NNE 5.6 mph 5.6 mph 82 % 0.0 in 47.0 W/m2 SCT
17:55 11.8 °F 8.8 °F 1020.5 in Calm     82 % 0.0 in 46.0 W/m2 SCT
17:56 11.8 °F 8.8 °F 1020.5 in Calm     82 % 0.0 in 46.0 W/m2 SCT
17:57 11.8 °F 8.8 °F 1020.9 in Calm     82 % 0.0 in 44.0 W/m2 SCT
18:02 11.6 °F 8.8 °F 1020.9 in Calm     83 % 0.0 in 18.0 W/m2 BKN
18:07 11.5 °F 8.7 °F 1020.9 in Calm     83 % 0.0 in 18.0 W/m2 BKN
18:12 11.4 °F 8.8 °F 1020.9 in Calm     84 % 0.0 in 11.0 W/m2 BKN
18:17 11.2 °F 8.6 °F 1020.9 in Calm     84 % 0.0 in 9.0 W/m2 BKN
18:22 11.1 °F 8.5 °F 1020.9 in Calm     84 % 0.0 in 7.0 W/m2 BKN
18:27 10.9 °F 8.5 °F 1020.9 in Calm     85 % 0.0 in 5.0 W/m2 OVC
18:32 10.8 °F 8.3 °F 1020.9 in Calm     85 % 0.0 in 0.0 W/m2 OVC
18:37 10.7 °F 8.4 °F 1020.9 in Calm     86 % 0.0 in 0.0 W/m2 OVC
18:42 10.6 °F 8.4 °F 1020.9 in Calm     86 % 0.0 in 0.0 W/m2 OVC
18:47 10.4 °F 8.2 °F 1020.9 in Calm     86 % 0.0 in 0.0 W/m2 OVC
18:52 10.3 °F 8.1 °F 1020.9 in Calm     86 % 0.0 in 0.0 W/m2 CLR
18:57 10.2 °F 7.9 °F 1020.9 in Calm     86 % 0.0 in 0.0 W/m2 CLR
19:02 10.0 °F 7.9 °F 1020.9 in Calm     87 % 0.0 in 0.0 W/m2 CLR
19:07 9.9 °F 8.1 °F 1020.9 in Calm     88 % 0.0 in 0.0 W/m2 CLR
19:12 9.8 °F 7.9 °F 1020.9 in Calm     88 % 0.0 in 0.0 W/m2 CLR
19:17 9.6 °F 7.6 °F 1020.9 in Calm     87 % 0.0 in 0.0 W/m2 CLR
19:22 9.5 °F 7.6 °F 1020.9 in Calm     88 % 0.0 in 0.0 W/m2 CLR
19:27 9.3 °F 7.4 °F 1021.2 in Calm     88 % 0.0 in 0.0 W/m2 CLR
19:32 9.2 °F 7.3 °F 1021.2 in Calm     88 % 0.0 in 0.0 W/m2 CLR
19:37 9.0 °F 7.1 °F 1021.2 in Calm     88 % 0.0 in 0.0 W/m2 CLR
19:42 8.8 °F 6.9 °F 1021.2 in Calm     88 % 0.0 in 0.0 W/m2 CLR
19:47 8.6 °F 6.7 °F 1021.2 in Calm     88 % 0.0 in 0.0 W/m2 CLR
19:52 8.3 °F 6.6 °F 1021.2 in Calm     89 % 0.0 in 0.0 W/m2 CLR
19:57 8.2 °F 6.7 °F 1021.2 in Calm     90 % 0.0 in 0.0 W/m2 CLR
20:02 8.0 °F 6.3 °F 1021.2 in Calm     89 % 0.0 in 0.0 W/m2 CLR
20:07 7.8 °F 6.1 °F 1021.2 in Calm     89 % 0.0 in 0.0 W/m2 CLR
20:12 7.6 °F 5.8 °F 1021.6 in Calm     89 % 0.0 in 0.0 W/m2 CLR
20:17 7.4 °F 5.7 °F 1021.6 in Calm     89 % 0.0 in 0.0 W/m2 CLR
20:22 7.2 °F 5.7 °F 1021.6 in Calm     90 % 0.0 in 0.0 W/m2 CLR
20:27 7.1 °F 5.6 °F 1021.6 in Calm     90 % 0.0 in 0.0 W/m2 CLR
20:32 6.9 °F 5.4 °F 1021.6 in Calm     90 % 0.0 in 0.0 W/m2 CLR
20:37 6.8 °F 5.3 °F 1021.9 in Calm     90 % 0.0 in 0.0 W/m2 CLR
20:42 6.6 °F 5.2 °F 1021.9 in Calm     91 % 0.0 in 0.0 W/m2 CLR
20:48 6.3 °F 4.8 °F 1021.9 in Calm     90 % 0.0 in 0.0 W/m2 CLR
20:53 6.2 °F 4.9 °F 1021.9 in Calm     91 % 0.0 in 0.0 W/m2 CLR
20:58 6.1 °F 4.8 °F 1022.2 in Calm     91 % 0.0 in 0.0 W/m2 CLR
21:03 6.0 °F 4.7 °F 1022.2 in Calm     91 % 0.0 in 0.0 W/m2 CLR
21:08 5.9 °F 4.6 °F 1022.2 in Calm     91 % 0.0 in 0.0 W/m2 CLR
21:13 5.8 °F 4.5 °F 1022.2 in Calm     91 % 0.0 in 0.0 W/m2 CLR
21:18 5.7 °F 4.4 °F 1022.2 in Calm     91 % 0.0 in 0.0 W/m2 CLR
21:23 5.7 °F 4.4 °F 1022.2 in Calm     92 % 0.0 in 0.0 W/m2 CLR
21:28 5.6 °F 4.4 °F 1022.2 in Calm     92 % 0.0 in 0.0 W/m2 CLR
21:33 5.5 °F 4.3 °F 1022.2 in Calm     92 % 0.0 in 0.0 W/m2 CLR
21:38 5.3 °F 4.1 °F 1022.2 in Calm     92 % 0.0 in 0.0 W/m2 CLR
21:43 5.1 °F 3.9 °F 1022.2 in Calm     92 % 0.0 in 0.0 W/m2 CLR
21:48 5.1 °F 3.9 °F 1022.6 in Calm     92 % 0.0 in 0.0 W/m2 CLR
21:53 4.9 °F 3.8 °F 1022.6 in Calm     92 % 0.0 in 0.0 W/m2 CLR
21:58 4.8 °F 3.7 °F 1022.6 in Calm     92 % 0.0 in 0.0 W/m2 CLR
22:03 4.7 °F 3.6 °F 1022.6 in Calm     92 % 0.0 in 0.0 W/m2 CLR
22:08 4.6 °F 3.4 °F 1022.6 in Calm     92 % 0.0 in 0.0 W/m2 CLR
22:13 4.6 °F 3.4 °F 1022.6 in Calm     92 % 0.0 in 0.0 W/m2 CLR
22:18 4.4 °F 3.3 °F 1022.9 in Calm     92 % 0.0 in 0.0 W/m2 CLR
22:23 4.4 °F 3.3 °F 1022.9 in Calm     92 % 0.0 in 0.0 W/m2 CLR
22:28 4.3 °F 3.2 °F 1022.9 in Calm     92 % 0.0 in 0.0 W/m2 CLR
22:29 4.3 °F 3.1 °F 1022.9 in Calm     92 % 0.0 in 0.0 W/m2 CLR
22:34 4.1 °F 2.9 °F 1022.9 in Calm     92 % 0.0 in 0.0 W/m2 CLR
22:39 4.0 °F 2.8 °F 1022.9 in Calm     92 % 0.0 in 0.0 W/m2 CLR
22:44 3.9 °F 2.8 °F 1022.9 in Calm     92 % 0.0 in 0.0 W/m2 CLR
22:49 4.0 °F 2.9 °F 1022.9 in Calm     93 % 0.0 in 0.0 W/m2 CLR
22:54 4.0 °F 2.9 °F 1022.9 in Calm     93 % 0.0 in 0.0 W/m2 CLR
22:59 4.1 °F 3.0 °F 1023.2 in Calm     93 % 0.0 in 0.0 W/m2 CLR
23:04 4.0 °F 2.9 °F 1023.2 in Calm     93 % 0.0 in 0.0 W/m2 CLR
23:09 4.0 °F 2.9 °F 1023.2 in Calm     93 % 0.0 in 0.0 W/m2 CLR
23:15 4.0 °F 2.9 °F 1023.2 in Calm     93 % 0.0 in 0.0 W/m2 CLR
23:20 3.9 °F 2.9 °F 1023.2 in Calm     93 % 0.0 in 0.0 W/m2 CLR
23:25 3.8 °F 2.8 °F 1023.2 in Calm     93 % 0.0 in 0.0 W/m2 CLR
23:30 3.8 °F 2.7 °F 1023.6 in Calm     93 % 0.0 in 0.0 W/m2 CLR
23:35 3.7 °F 2.7 °F 1023.6 in Calm     93 % 0.0 in 0.0 W/m2 CLR
23:40 3.7 °F 2.7 °F 1023.6 in Calm     93 % 0.0 in 0.0 W/m2 CLR
23:45 3.7 °F 2.7 °F 1023.6 in Calm     93 % 0.0 in 0.0 W/m2 CLR
23:50 3.4 °F 2.4 °F 1023.6 in Calm     93 % 0.0 in 0.0 W/m2 CLR
23:55 3.3 °F 2.3 °F 1023.6 in Calm     93 % 0.0 in 0.0 W/m2 CLR
Lo Temps de Massalio
Compliments of Weather Underground - 1.25 mb